sensor_id;sensor_type;location;lat;lon;timestamp;temperature;humidity
4695;DHT22;2361;49.540;8.390;2024-01-15T00:00:34;0.00;99.90
4695;DHT22;2361;49.540;8.390;2024-01-15T00:02:56;-0.10;99.90
4695;DHT22;2361;49.540;8.390;2024-01-15T00:05:19;-0.10;99.90
4695;DHT22;2361;49.540;8.390;2024-01-15T00:07:41;-0.10;99.90
4695;DHT22;2361;49.540;8.390;2024-01-15T00:10:03;-0.10;99.90
4695;DHT22;2361;49.540;8.390;2024-01-15T00:12:25;-0.10;99.90
4695;DHT22;2361;49.540;8.390;2024-01-15T00:14:47;-0.20;99.90
4695;DHT22;2361;49.540;8.390;2024-01-15T00:17:09;-0.20;99.90
4695;DHT22;2361;49.540;8.390;2024-01-15T00:19:31;-0.30;99.90
4695;DHT22;2361;49.540;8.390;2024-01-15T00:21:54;-0.40;99.90
4695;DHT22;2361;49.540;8.390;2024-01-15T00:24:16;-0.30;99.90
4695;DHT22;2361;49.540;8.390;2024-01-15T00:26:38;-0.30;99.90
4695;DHT22;2361;49.540;8.390;2024-01-15T00:29:00;-0.20;99.90
4695;DHT22;2361;49.540;8.390;2024-01-15T00:31:22;-0.20;99.90
4695;DHT22;2361;49.540;8.390;2024-01-15T00:33:44;-0.20;99.90
4695;DHT22;2361;49.540;8.390;2024-01-15T00:36:06;-0.20;99.90
4695;DHT22;2361;49.540;8.390;2024-01-15T00:38:29;-0.10;99.90
4695;DHT22;2361;49.540;8.390;2024-01-15T00:40:51;0.00;99.90
4695;DHT22;2361;49.540;8.390;2024-01-15T00:43:13;0.00;99.90
4695;DHT22;2361;49.540;8.390;2024-01-15T00:45:35;0.00;99.90
4695;DHT22;2361;49.540;8.390;2024-01-15T00:47:57;0.00;99.90
4695;DHT22;2361;49.540;8.390;2024-01-15T00:50:21;0.00;99.90
4695;DHT22;2361;49.540;8.390;2024-01-15T00:52:43;0.00;99.90
4695;DHT22;2361;49.540;8.390;2024-01-15T00:55:05;-0.10;99.90
4695;DHT22;2361;49.540;8.390;2024-01-15T00:57:27;0.00;99.90
4695;DHT22;2361;49.540;8.390;2024-01-15T00:59:49;0.00;99.90
4695;DHT22;2361;49.540;8.390;2024-01-15T01:02:11;0.00;99.90
4695;DHT22;2361;49.540;8.390;2024-01-15T01:04:33;0.00;99.90
4695;DHT22;2361;49.540;8.390;2024-01-15T01:06:55;0.00;99.90
4695;DHT22;2361;49.540;8.390;2024-01-15T01:09:18;0.00;99.90
4695;DHT22;2361;49.540;8.390;2024-01-15T01:11:39;0.00;99.90
4695;DHT22;2361;49.540;8.390;2024-01-15T01:14:01;0.00;99.90
4695;DHT22;2361;49.540;8.390;2024-01-15T01:16:24;0.10;99.90
4695;DHT22;2361;49.540;8.390;2024-01-15T01:18:46;0.10;99.90
4695;DHT22;2361;49.540;8.390;2024-01-15T01:21:08;0.00;99.90
4695;DHT22;2361;49.540;8.390;2024-01-15T01:23:30;0.00;99.90
4695;DHT22;2361;49.540;8.390;2024-01-15T01:25:52;0.10;99.90
4695;DHT22;2361;49.540;8.390;2024-01-15T01:28:14;0.10;99.90
4695;DHT22;2361;49.540;8.390;2024-01-15T01:30:36;0.00;99.90
4695;DHT22;2361;49.540;8.390;2024-01-15T01:32:58;0.00;99.90
4695;DHT22;2361;49.540;8.390;2024-01-15T01:35:22;0.00;99.90
4695;DHT22;2361;49.540;8.390;2024-01-15T01:37:46;0.00;99.90
4695;DHT22;2361;49.540;8.390;2024-01-15T01:40:08;0.00;99.90
4695;DHT22;2361;49.540;8.390;2024-01-15T01:42:30;0.10;99.90
4695;DHT22;2361;49.540;8.390;2024-01-15T01:44:52;0.10;99.90
4695;DHT22;2361;49.540;8.390;2024-01-15T01:47:14;0.10;99.90
4695;DHT22;2361;49.540;8.390;2024-01-15T01:49:37;0.10;99.90
4695;DHT22;2361;49.540;8.390;2024-01-15T01:52:01;0.10;99.90
4695;DHT22;2361;49.540;8.390;2024-01-15T01:54:26;0.10;99.90
4695;DHT22;2361;49.540;8.390;2024-01-15T01:56:50;0.10;99.90
4695;DHT22;2361;49.540;8.390;2024-01-15T01:59:13;0.10;99.90
4695;DHT22;2361;49.540;8.390;2024-01-15T02:01:35;0.10;99.90
4695;DHT22;2361;49.540;8.390;2024-01-15T02:03:58;0.10;99.90
4695;DHT22;2361;49.540;8.390;2024-01-15T02:06:20;0.10;99.90
4695;DHT22;2361;49.540;8.390;2024-01-15T02:08:43;0.10;99.90
4695;DHT22;2361;49.540;8.390;2024-01-15T02:11:06;0.10;99.90
4695;DHT22;2361;49.540;8.390;2024-01-15T02:13:28;0.20;99.90
4695;DHT22;2361;49.540;8.390;2024-01-15T02:15:50;0.20;99.90
4695;DHT22;2361;49.540;8.390;2024-01-15T02:18:12;0.30;99.90
4695;DHT22;2361;49.540;8.390;2024-01-15T02:20:35;0.30;99.90
4695;DHT22;2361;49.540;8.390;2024-01-15T02:23:11;0.20;99.90
4695;DHT22;2361;49.540;8.390;2024-01-15T02:25:34;0.30;99.90
4695;DHT22;2361;49.540;8.390;2024-01-15T02:27:56;0.30;99.90
4695;DHT22;2361;49.540;8.390;2024-01-15T02:30:18;0.20;99.90
4695;DHT22;2361;49.540;8.390;2024-01-15T02:32:40;0.10;99.90
4695;DHT22;2361;49.540;8.390;2024-01-15T02:35:02;0.10;99.90
4695;DHT22;2361;49.540;8.390;2024-01-15T02:37:25;0.10;99.90
4695;DHT22;2361;49.540;8.390;2024-01-15T02:39:47;0.00;99.90
4695;DHT22;2361;49.540;8.390;2024-01-15T02:42:09;0.00;99.90
4695;DHT22;2361;49.540;8.390;2024-01-15T02:44:31;0.00;99.90
4695;DHT22;2361;49.540;8.390;2024-01-15T02:46:52;0.00;99.90
4695;DHT22;2361;49.540;8.390;2024-01-15T02:49:14;0.10;99.90
4695;DHT22;2361;49.540;8.390;2024-01-15T02:51:37;0.10;99.90
4695;DHT22;2361;49.540;8.390;2024-01-15T02:53:59;0.10;99.90
4695;DHT22;2361;49.540;8.390;2024-01-15T02:56:21;0.10;99.90
4695;DHT22;2361;49.540;8.390;2024-01-15T02:58:43;0.10;99.90
4695;DHT22;2361;49.540;8.390;2024-01-15T03:01:05;0.20;99.90
4695;DHT22;2361;49.540;8.390;2024-01-15T03:03:27;0.20;99.90
4695;DHT22;2361;49.540;8.390;2024-01-15T03:05:50;0.30;99.90
4695;DHT22;2361;49.540;8.390;2024-01-15T03:08:12;0.30;99.90
4695;DHT22;2361;49.540;8.390;2024-01-15T03:10:34;0.20;99.90
4695;DHT22;2361;49.540;8.390;2024-01-15T03:12:57;0.20;99.90
4695;DHT22;2361;49.540;8.390;2024-01-15T03:15:19;0.20;99.90
4695;DHT22;2361;49.540;8.390;2024-01-15T03:17:44;0.20;99.90
4695;DHT22;2361;49.540;8.390;2024-01-15T03:20:06;0.20;99.90
4695;DHT22;2361;49.540;8.390;2024-01-15T03:22:29;0.20;99.90
4695;DHT22;2361;49.540;8.390;2024-01-15T03:24:52;0.30;99.90
4695;DHT22;2361;49.540;8.390;2024-01-15T03:27:14;0.30;99.90
4695;DHT22;2361;49.540;8.390;2024-01-15T03:29:36;0.30;99.90
4695;DHT22;2361;49.540;8.390;2024-01-15T03:31:58;0.30;99.90
4695;DHT22;2361;49.540;8.390;2024-01-15T03:34:20;0.40;99.90
4695;DHT22;2361;49.540;8.390;2024-01-15T03:36:42;0.40;99.90
4695;DHT22;2361;49.540;8.390;2024-01-15T03:39:04;0.50;99.90
4695;DHT22;2361;49.540;8.390;2024-01-15T03:41:26;0.50;99.90
4695;DHT22;2361;49.540;8.390;2024-01-15T03:43:48;0.50;99.90
4695;DHT22;2361;49.540;8.390;2024-01-15T03:46:10;0.50;99.90
4695;DHT22;2361;49.540;8.390;2024-01-15T03:48:32;0.50;99.90
4695;DHT22;2361;49.540;8.390;2024-01-15T03:50:54;0.60;99.90
4695;DHT22;2361;49.540;8.390;2024-01-15T03:53:16;0.60;99.90
4695;DHT22;2361;49.540;8.390;2024-01-15T03:55:38;0.60;99.90
4695;DHT22;2361;49.540;8.390;2024-01-15T03:58:00;0.60;99.90
4695;DHT22;2361;49.540;8.390;2024-01-15T04:00:22;0.60;99.90
4695;DHT22;2361;49.540;8.390;2024-01-15T04:02:44;0.50;99.90
4695;DHT22;2361;49.540;8.390;2024-01-15T04:05:06;0.50;99.90
4695;DHT22;2361;49.540;8.390;2024-01-15T04:07:28;0.50;99.90
4695;DHT22;2361;49.540;8.390;2024-01-15T04:09:50;0.50;99.90
4695;DHT22;2361;49.540;8.390;2024-01-15T04:12:12;0.50;99.90
4695;DHT22;2361;49.540;8.390;2024-01-15T04:14:34;0.50;99.90
4695;DHT22;2361;49.540;8.390;2024-01-15T04:16:56;0.50;99.90
4695;DHT22;2361;49.540;8.390;2024-01-15T04:19:18;0.50;99.90
4695;DHT22;2361;49.540;8.390;2024-01-15T04:21:40;0.60;99.90
4695;DHT22;2361;49.540;8.390;2024-01-15T04:24:03;0.60;99.90
4695;DHT22;2361;49.540;8.390;2024-01-15T04:26:25;0.50;99.90
4695;DHT22;2361;49.540;8.390;2024-01-15T04:28:47;0.50;99.90
4695;DHT22;2361;49.540;8.390;2024-01-15T04:31:09;0.50;99.90
4695;DHT22;2361;49.540;8.390;2024-01-15T04:33:31;0.50;99.90
4695;DHT22;2361;49.540;8.390;2024-01-15T04:35:53;0.50;99.90
4695;DHT22;2361;49.540;8.390;2024-01-15T04:38:15;0.50;99.90
4695;DHT22;2361;49.540;8.390;2024-01-15T04:40:37;0.60;99.90
4695;DHT22;2361;49.540;8.390;2024-01-15T04:42:59;0.60;99.90
4695;DHT22;2361;49.540;8.390;2024-01-15T04:45:21;0.50;99.90
4695;DHT22;2361;49.540;8.390;2024-01-15T04:47:50;0.60;99.90
4695;DHT22;2361;49.540;8.390;2024-01-15T04:50:12;0.60;99.90
4695;DHT22;2361;49.540;8.390;2024-01-15T04:52:34;0.60;99.90
4695;DHT22;2361;49.540;8.390;2024-01-15T04:54:56;0.60;99.90
4695;DHT22;2361;49.540;8.390;2024-01-15T04:57:17;0.60;99.90
4695;DHT22;2361;49.540;8.390;2024-01-15T04:59:39;0.60;99.90
4695;DHT22;2361;49.540;8.390;2024-01-15T05:02:02;0.60;99.90
4695;DHT22;2361;49.540;8.390;2024-01-15T05:04:24;0.60;99.90
4695;DHT22;2361;49.540;8.390;2024-01-15T05:06:48;0.70;99.90
4695;DHT22;2361;49.540;8.390;2024-01-15T05:09:10;0.70;99.90
4695;DHT22;2361;49.540;8.390;2024-01-15T05:11:33;0.70;99.90
4695;DHT22;2361;49.540;8.390;2024-01-15T05:13:55;0.70;99.90
4695;DHT22;2361;49.540;8.390;2024-01-15T05:16:17;0.70;99.90
4695;DHT22;2361;49.540;8.390;2024-01-15T05:18:39;0.80;99.90
4695;DHT22;2361;49.540;8.390;2024-01-15T05:21:01;0.80;99.90
4695;DHT22;2361;49.540;8.390;2024-01-15T05:23:24;0.70;99.90
4695;DHT22;2361;49.540;8.390;2024-01-15T05:25:46;0.70;99.90
4695;DHT22;2361;49.540;8.390;2024-01-15T05:28:08;0.70;99.90
4695;DHT22;2361;49.540;8.390;2024-01-15T05:30:29;0.70;99.90
4695;DHT22;2361;49.540;8.390;2024-01-15T05:32:51;0.80;99.90
4695;DHT22;2361;49.540;8.390;2024-01-15T05:35:13;0.80;99.90
4695;DHT22;2361;49.540;8.390;2024-01-15T05:37:35;0.80;99.90
4695;DHT22;2361;49.540;8.390;2024-01-15T05:39:57;0.80;99.90
4695;DHT22;2361;49.540;8.390;2024-01-15T05:42:20;0.80;99.90
4695;DHT22;2361;49.540;8.390;2024-01-15T05:44:42;0.90;99.90
4695;DHT22;2361;49.540;8.390;2024-01-15T05:47:04;0.80;99.90
4695;DHT22;2361;49.540;8.390;2024-01-15T05:49:26;0.80;99.90
4695;DHT22;2361;49.540;8.390;2024-01-15T05:51:48;0.80;99.90
4695;DHT22;2361;49.540;8.390;2024-01-15T05:54:10;0.80;99.90
4695;DHT22;2361;49.540;8.390;2024-01-15T05:56:32;0.80;99.90
4695;DHT22;2361;49.540;8.390;2024-01-15T05:58:54;0.80;99.90
4695;DHT22;2361;49.540;8.390;2024-01-15T06:01:16;0.80;99.90
4695;DHT22;2361;49.540;8.390;2024-01-15T06:03:38;0.90;99.90
4695;DHT22;2361;49.540;8.390;2024-01-15T06:06:00;0.90;99.90
4695;DHT22;2361;49.540;8.390;2024-01-15T06:08:22;0.90;99.90
4695;DHT22;2361;49.540;8.390;2024-01-15T06:10:44;0.90;99.90
4695;DHT22;2361;49.540;8.390;2024-01-15T06:13:06;1.00;99.90
4695;DHT22;2361;49.540;8.390;2024-01-15T06:15:28;1.00;99.90
4695;DHT22;2361;49.540;8.390;2024-01-15T06:17:50;1.00;99.90
4695;DHT22;2361;49.540;8.390;2024-01-15T06:20:13;1.00;99.90
4695;DHT22;2361;49.540;8.390;2024-01-15T06:22:35;1.10;99.90
4695;DHT22;2361;49.540;8.390;2024-01-15T06:24:58;1.10;99.90
4695;DHT22;2361;49.540;8.390;2024-01-15T06:27:20;1.20;99.90
4695;DHT22;2361;49.540;8.390;2024-01-15T06:29:45;1.20;99.90
4695;DHT22;2361;49.540;8.390;2024-01-15T06:32:11;1.20;99.90
4695;DHT22;2361;49.540;8.390;2024-01-15T06:34:33;1.30;99.90
4695;DHT22;2361;49.540;8.390;2024-01-15T06:36:55;1.20;99.90
4695;DHT22;2361;49.540;8.390;2024-01-15T06:39:18;1.20;99.90
4695;DHT22;2361;49.540;8.390;2024-01-15T06:41:40;1.20;99.90
4695;DHT22;2361;49.540;8.390;2024-01-15T06:44:05;1.10;99.90
4695;DHT22;2361;49.540;8.390;2024-01-15T06:46:27;1.10;99.90
4695;DHT22;2361;49.540;8.390;2024-01-15T06:48:49;1.20;99.90
4695;DHT22;2361;49.540;8.390;2024-01-15T06:51:11;1.20;99.90
4695;DHT22;2361;49.540;8.390;2024-01-15T06:53:33;1.20;99.90
4695;DHT22;2361;49.540;8.390;2024-01-15T06:55:55;1.20;99.90
4695;DHT22;2361;49.540;8.390;2024-01-15T06:58:17;1.20;99.90
4695;DHT22;2361;49.540;8.390;2024-01-15T07:00:39;1.20;99.90
4695;DHT22;2361;49.540;8.390;2024-01-15T07:03:02;1.20;99.90
4695;DHT22;2361;49.540;8.390;2024-01-15T07:05:24;1.30;99.90
4695;DHT22;2361;49.540;8.390;2024-01-15T07:07:46;1.30;99.90
4695;DHT22;2361;49.540;8.390;2024-01-15T07:10:09;1.30;99.90
4695;DHT22;2361;49.540;8.390;2024-01-15T07:12:31;1.30;99.90
4695;DHT22;2361;49.540;8.390;2024-01-15T07:14:54;1.30;99.90
4695;DHT22;2361;49.540;8.390;2024-01-15T07:17:16;1.20;99.90
4695;DHT22;2361;49.540;8.390;2024-01-15T07:19:38;1.30;99.90
4695;DHT22;2361;49.540;8.390;2024-01-15T07:22:00;1.20;99.90
4695;DHT22;2361;49.540;8.390;2024-01-15T07:24:22;1.20;99.90
4695;DHT22;2361;49.540;8.390;2024-01-15T07:26:44;1.20;99.90
4695;DHT22;2361;49.540;8.390;2024-01-15T07:29:06;1.10;99.90
4695;DHT22;2361;49.540;8.390;2024-01-15T07:31:28;1.10;99.90
4695;DHT22;2361;49.540;8.390;2024-01-15T07:33:50;1.10;99.90
4695;DHT22;2361;49.540;8.390;2024-01-15T07:36:12;1.20;99.90
4695;DHT22;2361;49.540;8.390;2024-01-15T07:38:34;1.20;99.90
4695;DHT22;2361;49.540;8.390;2024-01-15T07:40:56;1.20;99.90
4695;DHT22;2361;49.540;8.390;2024-01-15T07:43:18;1.20;99.90
4695;DHT22;2361;49.540;8.390;2024-01-15T07:45:44;1.30;99.90
4695;DHT22;2361;49.540;8.390;2024-01-15T07:48:07;1.30;99.90
4695;DHT22;2361;49.540;8.390;2024-01-15T07:50:29;1.30;99.90
4695;DHT22;2361;49.540;8.390;2024-01-15T07:52:51;1.30;99.90
4695;DHT22;2361;49.540;8.390;2024-01-15T07:55:14;1.40;99.90
4695;DHT22;2361;49.540;8.390;2024-01-15T07:57:36;1.30;99.90
4695;DHT22;2361;49.540;8.390;2024-01-15T07:59:58;1.30;99.90
4695;DHT22;2361;49.540;8.390;2024-01-15T08:02:20;1.30;99.90
4695;DHT22;2361;49.540;8.390;2024-01-15T08:04:43;1.40;99.90
4695;DHT22;2361;49.540;8.390;2024-01-15T08:07:06;1.50;99.90
4695;DHT22;2361;49.540;8.390;2024-01-15T08:09:29;1.50;99.90
4695;DHT22;2361;49.540;8.390;2024-01-15T08:11:51;1.50;99.90
4695;DHT22;2361;49.540;8.390;2024-01-15T08:14:13;1.50;99.90
4695;DHT22;2361;49.540;8.390;2024-01-15T08:16:38;1.50;99.90
4695;DHT22;2361;49.540;8.390;2024-01-15T08:19:00;1.50;99.90
4695;DHT22;2361;49.540;8.390;2024-01-15T08:21:23;1.50;99.90
4695;DHT22;2361;49.540;8.390;2024-01-15T08:23:45;1.50;99.90
4695;DHT22;2361;49.540;8.390;2024-01-15T08:26:07;1.50;99.90
4695;DHT22;2361;49.540;8.390;2024-01-15T08:28:29;1.40;99.90
4695;DHT22;2361;49.540;8.390;2024-01-15T08:30:51;1.40;99.90
4695;DHT22;2361;49.540;8.390;2024-01-15T08:33:13;1.40;99.90
4695;DHT22;2361;49.540;8.390;2024-01-15T08:35:43;1.40;99.90
4695;DHT22;2361;49.540;8.390;2024-01-15T08:38:05;1.40;99.90
4695;DHT22;2361;49.540;8.390;2024-01-15T08:40:27;1.40;99.90
4695;DHT22;2361;49.540;8.390;2024-01-15T08:42:49;1.40;99.90
4695;DHT22;2361;49.540;8.390;2024-01-15T08:45:12;1.40;99.90
4695;DHT22;2361;49.540;8.390;2024-01-15T08:47:34;1.50;99.90
4695;DHT22;2361;49.540;8.390;2024-01-15T08:49:56;1.50;99.90
4695;DHT22;2361;49.540;8.390;2024-01-15T08:52:18;1.60;99.90
4695;DHT22;2361;49.540;8.390;2024-01-15T08:54:41;1.60;99.90
4695;DHT22;2361;49.540;8.390;2024-01-15T08:57:03;1.60;99.90
4695;DHT22;2361;49.540;8.390;2024-01-15T08:59:25;1.70;99.90
4695;DHT22;2361;49.540;8.390;2024-01-15T09:01:47;1.80;99.90
4695;DHT22;2361;49.540;8.390;2024-01-15T09:04:09;1.90;99.90
4695;DHT22;2361;49.540;8.390;2024-01-15T09:06:31;1.90;99.90
4695;DHT22;2361;49.540;8.390;2024-01-15T09:08:54;1.80;99.90
4695;DHT22;2361;49.540;8.390;2024-01-15T09:11:16;1.90;99.90
4695;DHT22;2361;49.540;8.390;2024-01-15T09:13:38;1.90;99.90
4695;DHT22;2361;49.540;8.390;2024-01-15T09:16:01;1.90;99.90
4695;DHT22;2361;49.540;8.390;2024-01-15T09:18:24;1.90;99.90
4695;DHT22;2361;49.540;8.390;2024-01-15T09:20:46;2.00;99.90
4695;DHT22;2361;49.540;8.390;2024-01-15T09:23:08;2.00;99.90
4695;DHT22;2361;49.540;8.390;2024-01-15T09:25:30;2.00;99.90
4695;DHT22;2361;49.540;8.390;2024-01-15T09:27:52;2.10;99.90
4695;DHT22;2361;49.540;8.390;2024-01-15T09:30:15;2.10;99.90
4695;DHT22;2361;49.540;8.390;2024-01-15T09:32:37;2.10;99.90
4695;DHT22;2361;49.540;8.390;2024-01-15T09:34:59;2.10;99.90
4695;DHT22;2361;49.540;8.390;2024-01-15T09:37:21;2.10;99.90
4695;DHT22;2361;49.540;8.390;2024-01-15T09:40:03;2.10;99.90
4695;DHT22;2361;49.540;8.390;2024-01-15T09:42:27;2.00;99.90
4695;DHT22;2361;49.540;8.390;2024-01-15T09:44:50;2.00;99.90
4695;DHT22;2361;49.540;8.390;2024-01-15T09:47:12;2.10;99.90
4695;DHT22;2361;49.540;8.390;2024-01-15T09:49:35;2.10;99.90
4695;DHT22;2361;49.540;8.390;2024-01-15T09:51:57;2.20;99.90
4695;DHT22;2361;49.540;8.390;2024-01-15T09:54:33;2.20;99.90
4695;DHT22;2361;49.540;8.390;2024-01-15T09:56:55;2.20;99.90
4695;DHT22;2361;49.540;8.390;2024-01-15T09:59:22;2.20;99.90
4695;DHT22;2361;49.540;8.390;2024-01-15T10:01:45;2.20;99.90
4695;DHT22;2361;49.540;8.390;2024-01-15T10:04:11;2.20;99.90
4695;DHT22;2361;49.540;8.390;2024-01-15T10:06:34;2.20;99.90
4695;DHT22;2361;49.540;8.390;2024-01-15T10:08:57;2.20;99.90
4695;DHT22;2361;49.540;8.390;2024-01-15T10:11:22;2.20;99.90
4695;DHT22;2361;49.540;8.390;2024-01-15T10:13:44;2.30;99.90
4695;DHT22;2361;49.540;8.390;2024-01-15T10:16:07;2.30;99.90
4695;DHT22;2361;49.540;8.390;2024-01-15T10:18:29;2.30;99.90
4695;DHT22;2361;49.540;8.390;2024-01-15T10:20:51;2.40;99.90
4695;DHT22;2361;49.540;8.390;2024-01-15T10:23:14;2.40;99.90
4695;DHT22;2361;49.540;8.390;2024-01-15T10:25:37;2.30;99.90
4695;DHT22;2361;49.540;8.390;2024-01-15T10:28:00;2.30;99.90
4695;DHT22;2361;49.540;8.390;2024-01-15T10:30:24;2.30;99.90
4695;DHT22;2361;49.540;8.390;2024-01-15T10:33:00;2.30;99.90
4695;DHT22;2361;49.540;8.390;2024-01-15T10:35:27;2.30;99.90
4695;DHT22;2361;49.540;8.390;2024-01-15T10:37:52;2.40;99.90
4695;DHT22;2361;49.540;8.390;2024-01-15T10:40:14;2.40;99.90
4695;DHT22;2361;49.540;8.390;2024-01-15T10:42:36;2.40;99.90
4695;DHT22;2361;49.540;8.390;2024-01-15T10:44:58;2.40;99.90
4695;DHT22;2361;49.540;8.390;2024-01-15T10:47:20;2.50;99.90
4695;DHT22;2361;49.540;8.390;2024-01-15T10:49:43;2.50;99.90
4695;DHT22;2361;49.540;8.390;2024-01-15T10:52:05;2.50;99.90
4695;DHT22;2361;49.540;8.390;2024-01-15T10:54:28;2.50;99.90
4695;DHT22;2361;49.540;8.390;2024-01-15T10:56:51;2.60;99.90
4695;DHT22;2361;49.540;8.390;2024-01-15T10:59:13;2.60;99.90
4695;DHT22;2361;49.540;8.390;2024-01-15T11:01:36;2.70;99.90
4695;DHT22;2361;49.540;8.390;2024-01-15T11:03:59;2.60;99.90
4695;DHT22;2361;49.540;8.390;2024-01-15T11:06:24;2.60;99.90
4695;DHT22;2361;49.540;8.390;2024-01-15T11:08:49;2.60;99.90
4695;DHT22;2361;49.540;8.390;2024-01-15T11:11:13;2.60;99.90
4695;DHT22;2361;49.540;8.390;2024-01-15T11:16:02;2.50;99.90
4695;DHT22;2361;49.540;8.390;2024-01-15T11:18:39;2.50;99.90
4695;DHT22;2361;49.540;8.390;2024-01-15T11:26:31;2.60;99.90
4695;DHT22;2361;49.540;8.390;2024-01-15T11:28:59;2.50;99.90
4695;DHT22;2361;49.540;8.390;2024-01-15T11:31:29;2.50;99.90
4695;DHT22;2361;49.540;8.390;2024-01-15T11:34:00;2.60;99.90
4695;DHT22;2361;49.540;8.390;2024-01-15T11:41:49;2.70;99.90
4695;DHT22;2361;49.540;8.390;2024-01-15T11:44:12;2.70;99.90
4695;DHT22;2361;49.540;8.390;2024-01-15T11:46:39;2.80;99.90
4695;DHT22;2361;49.540;8.390;2024-01-15T11:49:12;2.80;99.90
4695;DHT22;2361;49.540;8.390;2024-01-15T11:51:47;2.80;99.90
4695;DHT22;2361;49.540;8.390;2024-01-15T11:54:11;2.90;99.90
4695;DHT22;2361;49.540;8.390;2024-01-15T11:56:34;2.80;99.90
4695;DHT22;2361;49.540;8.390;2024-01-15T11:58:56;2.90;99.90
4695;DHT22;2361;49.540;8.390;2024-01-15T12:01:18;3.00;99.90
4695;DHT22;2361;49.540;8.390;2024-01-15T12:03:41;3.00;99.90
4695;DHT22;2361;49.540;8.390;2024-01-15T12:06:06;3.10;99.90
4695;DHT22;2361;49.540;8.390;2024-01-15T12:08:29;3.10;99.90
4695;DHT22;2361;49.540;8.390;2024-01-15T12:10:51;3.10;99.90
4695;DHT22;2361;49.540;8.390;2024-01-15T12:13:14;3.10;99.90
4695;DHT22;2361;49.540;8.390;2024-01-15T12:15:37;3.10;99.90
4695;DHT22;2361;49.540;8.390;2024-01-15T12:18:02;3.10;99.90
4695;DHT22;2361;49.540;8.390;2024-01-15T12:20:29;3.20;99.90
4695;DHT22;2361;49.540;8.390;2024-01-15T12:22:52;3.20;99.90
4695;DHT22;2361;49.540;8.390;2024-01-15T12:25:24;3.20;99.90
4695;DHT22;2361;49.540;8.390;2024-01-15T12:27:48;3.20;99.90
4695;DHT22;2361;49.540;8.390;2024-01-15T12:30:12;3.20;99.90
4695;DHT22;2361;49.540;8.390;2024-01-15T12:32:34;3.30;99.90
4695;DHT22;2361;49.540;8.390;2024-01-15T12:34:57;3.30;99.90
4695;DHT22;2361;49.540;8.390;2024-01-15T12:37:19;3.40;99.90
4695;DHT22;2361;49.540;8.390;2024-01-15T12:39:44;3.30;99.90
4695;DHT22;2361;49.540;8.390;2024-01-15T12:42:06;3.40;99.90
4695;DHT22;2361;49.540;8.390;2024-01-15T12:44:28;3.40;99.90
4695;DHT22;2361;49.540;8.390;2024-01-15T12:46:51;3.40;99.90
4695;DHT22;2361;49.540;8.390;2024-01-15T12:49:13;3.40;99.90
4695;DHT22;2361;49.540;8.390;2024-01-15T12:51:35;3.40;99.90
4695;DHT22;2361;49.540;8.390;2024-01-15T12:53:57;3.40;99.90
4695;DHT22;2361;49.540;8.390;2024-01-15T12:56:19;3.40;99.90
4695;DHT22;2361;49.540;8.390;2024-01-15T12:58:41;3.40;99.90
4695;DHT22;2361;49.540;8.390;2024-01-15T13:01:03;3.40;99.90
4695;DHT22;2361;49.540;8.390;2024-01-15T13:03:26;3.50;99.90
4695;DHT22;2361;49.540;8.390;2024-01-15T13:05:48;3.60;99.90
4695;DHT22;2361;49.540;8.390;2024-01-15T13:08:11;3.70;99.90
4695;DHT22;2361;49.540;8.390;2024-01-15T13:10:33;3.80;99.90
4695;DHT22;2361;49.540;8.390;2024-01-15T13:12:55;3.90;99.90
4695;DHT22;2361;49.540;8.390;2024-01-15T13:15:17;4.00;99.90
4695;DHT22;2361;49.540;8.390;2024-01-15T13:17:39;3.90;99.90
4695;DHT22;2361;49.540;8.390;2024-01-15T13:20:02;3.90;99.90
4695;DHT22;2361;49.540;8.390;2024-01-15T13:22:25;4.00;99.90
4695;DHT22;2361;49.540;8.390;2024-01-15T13:24:52;4.00;99.90
4695;DHT22;2361;49.540;8.390;2024-01-15T13:27:14;4.00;99.90
4695;DHT22;2361;49.540;8.390;2024-01-15T13:29:36;4.10;99.90
4695;DHT22;2361;49.540;8.390;2024-01-15T13:31:58;4.10;99.90
4695;DHT22;2361;49.540;8.390;2024-01-15T13:34:21;4.20;99.90
4695;DHT22;2361;49.540;8.390;2024-01-15T13:36:43;4.30;99.90
4695;DHT22;2361;49.540;8.390;2024-01-15T13:39:05;4.30;99.90
4695;DHT22;2361;49.540;8.390;2024-01-15T13:41:30;4.30;99.90
4695;DHT22;2361;49.540;8.390;2024-01-15T13:43:52;4.30;99.90
4695;DHT22;2361;49.540;8.390;2024-01-15T13:46:15;4.30;99.90
4695;DHT22;2361;49.540;8.390;2024-01-15T13:48:38;4.30;99.90
4695;DHT22;2361;49.540;8.390;2024-01-15T13:51:01;4.10;99.90
4695;DHT22;2361;49.540;8.390;2024-01-15T13:53:23;4.00;99.90
4695;DHT22;2361;49.540;8.390;2024-01-15T13:55:45;4.00;99.90
4695;DHT22;2361;49.540;8.390;2024-01-15T13:58:07;4.00;99.90
4695;DHT22;2361;49.540;8.390;2024-01-15T14:00:29;4.00;99.90
4695;DHT22;2361;49.540;8.390;2024-01-15T14:02:51;3.90;99.90
4695;DHT22;2361;49.540;8.390;2024-01-15T14:05:13;4.00;99.90
4695;DHT22;2361;49.540;8.390;2024-01-15T14:07:35;3.90;99.90
4695;DHT22;2361;49.540;8.390;2024-01-15T14:09:57;3.90;99.90
4695;DHT22;2361;49.540;8.390;2024-01-15T14:12:19;3.90;99.90
4695;DHT22;2361;49.540;8.390;2024-01-15T14:14:41;3.90;99.90
4695;DHT22;2361;49.540;8.390;2024-01-15T14:17:03;3.80;99.90
4695;DHT22;2361;49.540;8.390;2024-01-15T14:19:25;3.80;99.90
4695;DHT22;2361;49.540;8.390;2024-01-15T14:21:47;3.70;99.90
4695;DHT22;2361;49.540;8.390;2024-01-15T14:24:10;3.70;99.90
4695;DHT22;2361;49.540;8.390;2024-01-15T14:26:32;3.70;99.90
4695;DHT22;2361;49.540;8.390;2024-01-15T14:28:54;3.70;99.90
4695;DHT22;2361;49.540;8.390;2024-01-15T14:31:16;3.60;99.90
4695;DHT22;2361;49.540;8.390;2024-01-15T14:33:38;3.70;99.90
4695;DHT22;2361;49.540;8.390;2024-01-15T14:36:01;3.60;99.90
4695;DHT22;2361;49.540;8.390;2024-01-15T14:38:23;3.60;99.90
4695;DHT22;2361;49.540;8.390;2024-01-15T14:40:45;3.70;99.90
4695;DHT22;2361;49.540;8.390;2024-01-15T14:43:07;3.70;99.90
4695;DHT22;2361;49.540;8.390;2024-01-15T14:45:30;3.70;99.90
4695;DHT22;2361;49.540;8.390;2024-01-15T14:47:52;3.60;99.90
4695;DHT22;2361;49.540;8.390;2024-01-15T14:50:14;3.60;99.90
4695;DHT22;2361;49.540;8.390;2024-01-15T14:52:36;3.60;99.90
4695;DHT22;2361;49.540;8.390;2024-01-15T14:54:58;3.70;99.90
4695;DHT22;2361;49.540;8.390;2024-01-15T14:57:21;3.70;99.90
4695;DHT22;2361;49.540;8.390;2024-01-15T14:59:43;3.80;99.90
4695;DHT22;2361;49.540;8.390;2024-01-15T15:02:05;3.70;99.90
4695;DHT22;2361;49.540;8.390;2024-01-15T15:04:27;3.80;99.90
4695;DHT22;2361;49.540;8.390;2024-01-15T15:06:50;3.80;99.90
4695;DHT22;2361;49.540;8.390;2024-01-15T15:09:12;3.80;99.90
4695;DHT22;2361;49.540;8.390;2024-01-15T15:11:34;3.80;99.90
4695;DHT22;2361;49.540;8.390;2024-01-15T15:13:56;3.80;99.90
4695;DHT22;2361;49.540;8.390;2024-01-15T15:16:19;3.80;99.90
4695;DHT22;2361;49.540;8.390;2024-01-15T15:18:42;3.80;99.90
4695;DHT22;2361;49.540;8.390;2024-01-15T15:21:05;3.80;99.90
4695;DHT22;2361;49.540;8.390;2024-01-15T15:23:29;3.80;99.90
4695;DHT22;2361;49.540;8.390;2024-01-15T15:25:51;3.70;99.90
4695;DHT22;2361;49.540;8.390;2024-01-15T15:28:13;3.70;99.90
4695;DHT22;2361;49.540;8.390;2024-01-15T15:30:38;3.70;99.90
4695;DHT22;2361;49.540;8.390;2024-01-15T15:33:00;3.60;99.90
4695;DHT22;2361;49.540;8.390;2024-01-15T15:35:22;3.50;99.90
4695;DHT22;2361;49.540;8.390;2024-01-15T15:37:44;3.40;99.90
4695;DHT22;2361;49.540;8.390;2024-01-15T15:40:06;3.40;99.90
4695;DHT22;2361;49.540;8.390;2024-01-15T15:42:30;3.30;99.90
4695;DHT22;2361;49.540;8.390;2024-01-15T15:44:53;3.20;99.90
4695;DHT22;2361;49.540;8.390;2024-01-15T15:47:20;3.10;99.90
4695;DHT22;2361;49.540;8.390;2024-01-15T15:49:43;3.10;99.90
4695;DHT22;2361;49.540;8.390;2024-01-15T15:52:05;3.10;99.90
4695;DHT22;2361;49.540;8.390;2024-01-15T15:54:27;3.10;99.90
4695;DHT22;2361;49.540;8.390;2024-01-15T15:56:49;3.00;99.90
4695;DHT22;2361;49.540;8.390;2024-01-15T15:59:15;3.00;99.90